createdAt,value
2019-03-31T00:01:52.990Z,19.27
2019-03-31T00:04:23.231Z,12.83
2019-03-31T00:06:53.868Z,12.13
2019-03-31T00:09:25.502Z,12.00
2019-03-31T00:11:56.192Z,18.13
2019-03-31T00:14:26.791Z,14.90
2019-03-31T00:16:59.978Z,20.87
2019-03-31T00:19:30.156Z,20.30
2019-03-31T00:22:00.500Z,22.17
2019-03-31T00:24:30.887Z,19.60
2019-03-31T00:27:01.126Z,18.27
2019-03-31T00:29:31.404Z,19.60
2019-03-31T00:32:01.962Z,22.17
2019-03-31T00:34:32.190Z,20.07
2019-03-31T00:37:02.490Z,18.60
2019-03-31T00:39:32.827Z,21.30
2019-03-31T00:42:03.147Z,16.63
2019-03-31T00:44:36.413Z,13.90
2019-03-31T00:47:06.908Z,19.17
2019-03-31T00:49:37.292Z,17.80
2019-03-31T00:52:07.675Z,20.20
2019-03-31T00:54:37.876Z,11.13
2019-03-31T00:57:08.154Z,17.77
2019-03-31T00:59:38.648Z,16.20
2019-03-31T01:02:12.545Z,15.70
2019-03-31T01:04:43.447Z,18.30
2019-03-31T01:07:16.229Z,16.10
2019-03-31T01:09:46.719Z,16.77
2019-03-31T01:12:17.213Z,15.47
2019-03-31T01:14:47.983Z,15.37
2019-03-31T01:17:19.020Z,17.37
2019-03-31T01:19:50.103Z,15.03
2019-03-31T01:22:20.543Z,13.03
2019-03-31T01:24:51.464Z,11.57
2019-03-31T01:27:22.376Z,15.23
2019-03-31T01:29:53.057Z,13.50
2019-03-31T01:32:25.054Z,14.43
2019-03-31T01:34:55.700Z,13.20
2019-03-31T01:37:26.196Z,13.07
2019-03-31T01:39:56.566Z,9.40
2019-03-31T01:42:27.057Z,8.93
2019-03-31T01:44:57.391Z,10.07
2019-03-31T01:47:27.841Z,9.00
2019-03-31T01:49:58.225Z,6.60
2019-03-31T01:52:28.921Z,9.20
2019-03-31T01:55:00.410Z,10.53
2019-03-31T01:57:31.412Z,10.07
2019-03-31T02:00:01.726Z,7.67
2019-03-31T02:02:32.258Z,9.00
2019-03-31T02:05:02.585Z,10.10
2019-03-31T02:07:36.057Z,7.90
2019-03-31T02:10:07.140Z,8.67
2019-03-31T02:12:38.069Z,8.33
2019-03-31T02:15:29.048Z,8.40
2019-03-31T02:17:59.306Z,9.63
2019-03-31T02:20:30.012Z,7.17
2019-03-31T02:23:00.485Z,5.07
2019-03-31T02:25:30.973Z,8.60
2019-03-31T02:28:03.297Z,5.53
2019-03-31T02:30:33.554Z,10.33
2019-03-31T02:33:03.751Z,6.37
2019-03-31T02:35:35.447Z,6.87
2019-03-31T02:38:05.752Z,9.83
2019-03-31T02:40:36.355Z,6.80
2019-03-31T02:43:06.696Z,6.03
2019-03-31T02:45:37.089Z,8.60
2019-03-31T02:48:07.501Z,5.33
2019-03-31T02:50:47.062Z,4.57
2019-03-31T02:53:18.552Z,4.73
2019-03-31T02:55:49.028Z,5.03
2019-03-31T02:58:20.539Z,5.23
2019-03-31T03:00:52.115Z,4.03
2019-03-31T03:03:24.037Z,5.53
2019-03-31T03:05:56.753Z,3.73
2019-03-31T03:08:28.926Z,3.90
2019-03-31T03:11:04.712Z,3.60
2019-03-31T03:13:38.660Z,4.03
2019-03-31T03:16:17.399Z,3.10
2019-03-31T03:18:50.345Z,3.60
2019-03-31T03:21:24.128Z,3.43
2019-03-31T03:23:53.217Z,2.73
2019-03-31T03:26:23.433Z,3.63
2019-03-31T03:28:53.699Z,3.17
2019-03-31T03:31:24.010Z,3.07
2019-03-31T03:33:54.497Z,4.10
2019-03-31T03:36:25.002Z,2.97
2019-03-31T03:38:55.198Z,4.03
2019-03-31T03:41:25.649Z,2.70
2019-03-31T03:44:02.371Z,3.10
2019-03-31T03:46:30.614Z,3.10
2019-03-31T03:49:00.848Z,2.60
2019-03-31T03:51:31.391Z,3.57
2019-03-31T03:54:07.193Z,2.93
2019-03-31T03:56:37.667Z,3.40
2019-03-31T03:59:07.895Z,3.40
2019-03-31T04:01:38.748Z,2.97
2019-03-31T04:04:08.887Z,6.03
2019-03-31T04:06:39.673Z,4.17
2019-03-31T04:09:10.082Z,5.93
2019-03-31T04:11:40.324Z,5.53
2019-03-31T04:14:10.526Z,6.10
2019-03-31T04:16:40.893Z,4.07
2019-03-31T04:19:12.666Z,4.93
2019-03-31T04:21:43.393Z,3.43
2019-03-31T04:24:13.655Z,6.07
2019-03-31T04:26:46.050Z,5.67
2019-03-31T04:29:16.225Z,6.00
2019-03-31T04:31:46.552Z,4.13
2019-03-31T04:34:16.812Z,5.20
2019-03-31T04:36:47.125Z,6.83
2019-03-31T04:39:17.366Z,7.23
2019-03-31T04:41:47.807Z,5.27
2019-03-31T04:44:18.263Z,4.53
2019-03-31T04:46:49.963Z,4.80
2019-03-31T04:49:21.937Z,6.47
2019-03-31T04:51:52.435Z,5.67
2019-03-31T04:54:22.735Z,5.87
2019-03-31T04:56:53.007Z,5.53
2019-03-31T04:59:23.601Z,5.37
2019-03-31T05:01:55.879Z,4.37
2019-03-31T05:04:26.474Z,4.97
2019-03-31T05:06:56.874Z,4.47
2019-03-31T05:09:28.748Z,3.37
2019-03-31T05:12:00.559Z,5.80
2019-03-31T05:14:30.724Z,4.00
2019-03-31T05:17:01.113Z,6.00
2019-03-31T05:19:31.319Z,3.93
2019-03-31T05:22:01.651Z,4.00
2019-03-31T05:24:31.789Z,3.20
2019-03-31T05:27:02.020Z,3.70
2019-03-31T05:29:32.489Z,3.40
2019-03-31T05:32:02.692Z,2.13
2019-03-31T05:34:34.642Z,2.83
2019-03-31T05:37:04.927Z,2.43
2019-03-31T05:39:35.157Z,3.10
2019-03-31T05:42:05.415Z,2.10
2019-03-31T05:44:35.812Z,2.87
2019-03-31T05:47:06.196Z,3.20
2019-03-31T05:49:36.597Z,2.23
2019-03-31T05:52:06.972Z,2.83
2019-03-31T05:54:40.152Z,1.80
2019-03-31T05:57:10.489Z,2.20
2019-03-31T05:59:40.824Z,1.07
2019-03-31T06:02:11.112Z,1.50
2019-03-31T06:04:41.638Z,1.50
2019-03-31T06:07:13.995Z,1.70
2019-03-31T06:09:45.629Z,1.20
2019-03-31T06:12:15.815Z,1.00
2019-03-31T06:14:46.114Z,1.70
2019-03-31T06:17:16.566Z,1.50
2019-03-31T06:19:47.208Z,1.70
2019-03-31T06:22:17.685Z,1.33
2019-03-31T06:24:47.917Z,1.53
2019-03-31T06:27:19.122Z,1.77
2019-03-31T06:29:49.713Z,1.20
2019-03-31T06:32:22.729Z,1.50
2019-03-31T06:34:55.012Z,1.23
2019-03-31T06:37:25.397Z,1.20
2019-03-31T06:39:56.258Z,1.93
2019-03-31T06:42:27.554Z,1.87
2019-03-31T06:45:04.041Z,2.73
2019-03-31T06:47:34.320Z,0.93
2019-03-31T06:50:05.028Z,1.40
2019-03-31T06:52:37.494Z,3.00
2019-03-31T06:55:08.583Z,2.07
2019-03-31T06:57:38.866Z,2.20
2019-03-31T07:00:09.612Z,2.27
2019-03-31T07:02:40.057Z,2.73
2019-03-31T07:05:10.249Z,1.80
2019-03-31T07:07:40.843Z,1.87
2019-03-31T07:10:12.434Z,1.47
2019-03-31T07:12:43.017Z,1.63
2019-03-31T07:15:13.814Z,2.07
2019-03-31T07:17:44.286Z,1.90
2019-03-31T07:20:17.482Z,1.47
2019-03-31T07:22:47.573Z,1.60
2019-03-31T07:25:18.508Z,1.97
2019-03-31T07:27:54.654Z,1.80
2019-03-31T07:30:25.404Z,1.77
2019-03-31T07:32:57.083Z,0.93
2019-03-31T07:35:27.528Z,1.47
2019-03-31T07:38:03.160Z,1.57
2019-03-31T07:40:34.243Z,1.67
2019-03-31T07:43:05.723Z,2.50
2019-03-31T07:45:36.379Z,2.77
2019-03-31T07:48:08.270Z,2.40
2019-03-31T07:50:38.749Z,2.10
2019-03-31T07:53:09.055Z,2.37
2019-03-31T07:55:39.749Z,1.20
2019-03-31T07:58:10.159Z,2.27
2019-03-31T08:00:40.612Z,3.37
2019-03-31T08:03:11.417Z,2.37
2019-03-31T08:05:42.391Z,2.50
2019-03-31T08:08:12.973Z,1.73
2019-03-31T08:10:43.676Z,1.87
2019-03-31T08:13:14.206Z,2.53
2019-03-31T08:15:45.349Z,1.83
2019-03-31T08:18:15.634Z,1.67
2019-03-31T08:20:46.027Z,1.87
2019-03-31T08:23:17.216Z,2.80
2019-03-31T08:25:48.100Z,2.57
2019-03-31T08:28:18.497Z,1.23
2019-03-31T08:30:48.801Z,2.23
2019-03-31T08:33:18.998Z,2.00
2019-03-31T08:35:52.122Z,1.20
2019-03-31T08:38:24.427Z,1.63
2019-03-31T08:40:54.568Z,1.93
2019-03-31T08:43:25.170Z,1.67
2019-03-31T08:45:58.725Z,1.53
2019-03-31T08:48:30.369Z,1.77
2019-03-31T08:51:00.819Z,2.23
2019-03-31T08:53:32.820Z,2.20
2019-03-31T08:56:08.680Z,2.20
2019-03-31T08:58:38.201Z,1.73
2019-03-31T09:01:12.963Z,2.20
2019-03-31T09:03:58.652Z,2.10
2019-03-31T09:06:29.048Z,1.10
2019-03-31T09:08:59.440Z,2.40
2019-03-31T09:11:29.842Z,2.43
2019-03-31T09:14:00.117Z,1.80
2019-03-31T09:16:30.709Z,1.80
2019-03-31T09:19:01.250Z,1.60
2019-03-31T09:21:32.875Z,1.80
2019-03-31T09:24:03.271Z,2.43
2019-03-31T09:26:34.063Z,1.67
2019-03-31T09:29:04.863Z,1.07
2019-03-31T09:31:39.881Z,1.60
2019-03-31T09:34:26.450Z,1.03
2019-03-31T09:42:50.685Z,1.93
2019-03-31T09:45:21.565Z,1.53
2019-03-31T09:47:52.267Z,1.80
2019-03-31T09:50:23.247Z,1.53
2019-03-31T09:52:53.973Z,2.17
2019-03-31T09:55:25.027Z,1.17
2019-03-31T09:57:55.248Z,1.17
2019-03-31T10:00:46.897Z,1.87
2019-03-31T10:03:17.600Z,1.57
2019-03-31T10:05:48.481Z,1.80
2019-03-31T10:08:21.953Z,1.33
2019-03-31T10:10:51.502Z,1.37
2019-03-31T10:13:22.371Z,1.00
2019-03-31T10:15:53.893Z,1.40
2019-03-31T10:18:24.881Z,1.00
2019-03-31T10:20:55.490Z,2.13
2019-03-31T10:23:25.718Z,1.07
2019-03-31T10:25:56.712Z,1.20
2019-03-31T10:28:30.334Z,1.10
2019-03-31T10:31:01.073Z,1.07
2019-03-31T10:33:31.376Z,1.33
2019-03-31T10:36:01.680Z,1.23
2019-03-31T10:38:32.657Z,1.40
2019-03-31T10:41:03.037Z,1.73
2019-03-31T10:43:33.354Z,0.97
2019-03-31T10:46:04.038Z,1.40
2019-03-31T10:48:34.505Z,1.60
2019-03-31T10:51:12.992Z,1.03
2019-03-31T10:53:43.702Z,1.20
2019-03-31T10:56:13.873Z,1.17
2019-03-31T10:58:44.498Z,1.20
2019-03-31T11:01:15.063Z,1.07
2019-03-31T11:03:46.041Z,1.20
2019-03-31T11:06:16.136Z,1.47
2019-03-31T11:08:46.734Z,0.90
2019-03-31T11:11:17.109Z,1.27
2019-03-31T11:14:01.228Z,0.90
2019-03-31T11:16:42.970Z,0.80
2019-03-31T11:19:24.440Z,0.70
2019-03-31T11:22:30.568Z,1.43
2019-03-31T11:25:01.433Z,1.20
2019-03-31T11:27:35.551Z,1.00
2019-03-31T11:30:08.445Z,1.27
2019-03-31T11:32:40.356Z,1.00
2019-03-31T11:35:11.137Z,1.10
2019-03-31T11:37:41.695Z,1.13
2019-03-31T11:40:12.591Z,0.90
2019-03-31T11:42:43.002Z,0.80
2019-03-31T11:45:13.864Z,0.60
2019-03-31T11:47:44.953Z,0.50
2019-03-31T11:50:16.000Z,1.27
2019-03-31T11:52:46.565Z,1.33
2019-03-31T11:55:17.558Z,0.90
2019-03-31T11:57:55.729Z,0.93
2019-03-31T12:00:27.604Z,0.77
2019-03-31T12:02:58.616Z,1.10
2019-03-31T12:05:31.381Z,0.83
2019-03-31T12:08:05.197Z,1.47
2019-03-31T12:10:37.472Z,1.43
2019-03-31T12:13:08.181Z,1.13
2019-03-31T12:15:38.747Z,1.40
2019-03-31T12:18:09.180Z,1.40
2019-03-31T12:20:39.923Z,1.30
2019-03-31T12:23:10.913Z,1.47
2019-03-31T12:25:41.440Z,1.37
2019-03-31T12:28:11.810Z,1.47
2019-03-31T12:30:42.301Z,2.00
2019-03-31T12:33:12.770Z,1.40
2019-03-31T12:35:43.150Z,1.90
2019-03-31T12:38:13.642Z,1.47
2019-03-31T12:40:43.972Z,1.30
2019-03-31T12:43:14.751Z,1.57
2019-03-31T12:45:45.519Z,1.60
2019-03-31T12:48:16.108Z,1.50
2019-03-31T12:50:46.638Z,2.10
2019-03-31T12:53:17.189Z,1.57
2019-03-31T12:55:59.521Z,2.00
2019-03-31T12:58:20.477Z,2.20
2019-03-31T13:00:50.970Z,1.50
2019-03-31T13:03:21.843Z,1.70
2019-03-31T13:05:53.293Z,1.53
2019-03-31T13:08:24.039Z,1.37
2019-03-31T13:10:55.732Z,2.23
2019-03-31T13:13:26.457Z,1.63
2019-03-31T13:15:56.944Z,1.70
2019-03-31T13:18:28.148Z,1.33
2019-03-31T13:20:59.013Z,1.83
2019-03-31T13:23:29.966Z,2.20
2019-03-31T13:26:00.176Z,2.23
2019-03-31T13:28:30.557Z,2.10
2019-03-31T13:31:01.348Z,1.73
2019-03-31T13:33:34.014Z,2.30
2019-03-31T13:36:04.517Z,2.70
2019-03-31T13:38:35.219Z,1.23
2019-03-31T13:41:06.392Z,1.63
2019-03-31T13:43:36.781Z,1.43
2019-03-31T13:46:07.406Z,2.30
2019-03-31T13:48:37.657Z,1.43
2019-03-31T13:51:08.166Z,1.20
2019-03-31T13:53:41.550Z,1.67
2019-03-31T13:56:14.197Z,2.20
2019-03-31T13:58:52.258Z,1.80
2019-03-31T14:01:16.902Z,1.23
2019-03-31T14:03:48.114Z,2.20
2019-03-31T14:06:18.485Z,1.47
2019-03-31T14:08:48.674Z,1.90
2019-03-31T14:11:21.767Z,2.00
2019-03-31T14:13:52.148Z,1.73
2019-03-31T14:16:22.442Z,1.17
2019-03-31T14:18:53.064Z,0.83
2019-03-31T14:21:23.321Z,1.67
2019-03-31T14:23:55.766Z,1.00
2019-03-31T14:26:26.050Z,1.67
2019-03-31T14:28:56.894Z,1.97
2019-03-31T14:31:27.183Z,1.57
2019-03-31T14:33:57.501Z,1.50
2019-03-31T14:36:46.854Z,1.33
2019-03-31T14:39:17.982Z,1.50
2019-03-31T14:41:48.546Z,1.40
2019-03-31T14:44:19.137Z,2.00
2019-03-31T14:46:50.226Z,1.83
2019-03-31T14:49:20.709Z,1.10
2019-03-31T14:51:51.809Z,1.53
2019-03-31T14:54:22.003Z,1.20
2019-03-31T14:56:58.724Z,1.40
2019-03-31T14:59:30.369Z,1.13
2019-03-31T15:02:01.158Z,1.73
2019-03-31T15:04:31.663Z,1.20
2019-03-31T15:07:02.439Z,2.20
2019-03-31T15:09:32.740Z,1.23
2019-03-31T15:12:07.192Z,1.43
2019-03-31T15:14:37.509Z,0.97
2019-03-31T15:17:07.697Z,1.27
2019-03-31T15:19:38.454Z,0.87
2019-03-31T15:22:08.909Z,0.60
2019-03-31T15:24:39.613Z,1.73
2019-03-31T15:27:09.955Z,1.50
2019-03-31T15:29:40.347Z,1.80
2019-03-31T15:32:13.131Z,1.30
2019-03-31T15:34:43.422Z,1.53
2019-03-31T15:37:14.265Z,1.77
2019-03-31T15:39:44.448Z,2.07
2019-03-31T15:42:14.703Z,0.63
2019-03-31T15:44:44.878Z,1.40
2019-03-31T15:47:16.286Z,1.40
2019-03-31T15:49:46.664Z,1.00
2019-03-31T15:52:17.266Z,0.80
2019-03-31T15:54:47.451Z,1.43
2019-03-31T15:57:17.741Z,1.40
2019-03-31T15:59:54.356Z,1.90
2019-03-31T16:02:28.931Z,1.37
2019-03-31T16:05:00.610Z,1.20
2019-03-31T16:07:34.403Z,1.67
2019-03-31T16:10:04.979Z,1.77
2019-03-31T16:12:35.306Z,1.73
2019-03-31T16:15:07.168Z,1.67
2019-03-31T16:17:36.975Z,1.83
2019-03-31T16:20:07.292Z,1.43
2019-03-31T16:22:53.873Z,1.47
2019-03-31T16:25:30.812Z,1.57
2019-03-31T16:28:02.301Z,1.83
2019-03-31T16:30:32.305Z,1.83
2019-03-31T16:33:01.984Z,1.53
2019-03-31T16:35:31.689Z,1.07
2019-03-31T16:38:01.577Z,1.67
2019-03-31T16:40:31.170Z,1.27
2019-03-31T16:43:02.343Z,1.60
2019-03-31T16:45:32.416Z,1.30
2019-03-31T16:48:03.054Z,1.73
2019-03-31T16:50:34.403Z,1.50
2019-03-31T16:53:04.438Z,1.40
2019-03-31T16:55:36.197Z,1.10
2019-03-31T16:58:09.282Z,1.67
2019-03-31T17:00:38.602Z,1.20
2019-03-31T17:03:08.750Z,0.80
2019-03-31T17:05:38.780Z,1.73
2019-03-31T17:08:08.462Z,1.20
2019-03-31T17:10:38.529Z,1.10
2019-03-31T17:13:09.698Z,1.80
2019-03-31T17:15:40.617Z,1.80
2019-03-31T17:18:10.461Z,2.47
2019-03-31T17:20:40.316Z,1.43
2019-03-31T17:23:10.366Z,1.20
2019-03-31T17:25:41.272Z,1.03
2019-03-31T17:28:22.363Z,1.27
2019-03-31T17:30:53.126Z,1.93
2019-03-31T17:33:22.968Z,1.40
2019-03-31T17:35:52.796Z,1.37
2019-03-31T17:38:22.461Z,1.23
2019-03-31T17:41:00.133Z,1.20
2019-03-31T17:43:29.796Z,1.43
2019-03-31T17:46:00.069Z,1.90
2019-03-31T17:48:30.950Z,1.23
2019-03-31T17:51:00.726Z,1.20
2019-03-31T17:53:30.230Z,1.20
2019-03-31T17:55:59.994Z,1.40
2019-03-31T17:58:29.586Z,1.50
2019-03-31T18:01:01.475Z,1.53
2019-03-31T18:03:31.176Z,1.30
2019-03-31T18:06:01.298Z,1.07
2019-03-31T18:08:31.104Z,1.17
2019-03-31T18:13:37.892Z,0.93
2019-03-31T18:16:08.569Z,1.20
2019-03-31T18:18:38.000Z,1.57
2019-03-31T18:21:09.692Z,1.10
2019-03-31T18:23:39.176Z,0.60
2019-03-31T18:26:09.137Z,1.00
2019-03-31T18:28:38.830Z,1.13
2019-03-31T18:31:10.715Z,1.00
2019-03-31T18:33:42.562Z,0.93
2019-03-31T18:36:12.517Z,1.50
2019-03-31T18:38:44.350Z,1.00
2019-03-31T18:41:15.026Z,1.10
2019-03-31T18:43:51.165Z,1.10
2019-03-31T18:46:16.358Z,1.20
2019-03-31T18:48:51.106Z,1.63
2019-03-31T18:51:21.291Z,1.40
2019-03-31T18:54:12.560Z,1.30
2019-03-31T18:56:53.819Z,1.30
2019-03-31T18:59:57.668Z,1.20
2019-03-31T19:02:53.815Z,1.47
2019-03-31T19:05:41.372Z,0.87
2019-03-31T19:08:24.975Z,1.17
2019-03-31T19:11:23.849Z,1.37
2019-03-31T19:14:04.820Z,1.43
2019-03-31T19:16:41.803Z,1.00
2019-03-31T19:19:18.543Z,1.37
2019-03-31T19:22:07.182Z,1.23
2019-03-31T19:24:59.027Z,0.93
2019-03-31T19:27:35.113Z,1.10
2019-03-31T19:30:41.905Z,0.93
2019-03-31T19:33:31.400Z,1.07
2019-03-31T19:36:25.917Z,1.20
2019-03-31T19:39:13.093Z,1.60
2019-03-31T19:42:10.647Z,1.67
2019-03-31T19:45:05.095Z,1.63
2019-03-31T19:47:57.193Z,1.53
2019-03-31T19:50:44.572Z,1.83
2019-03-31T19:53:30.747Z,1.53
2019-03-31T19:56:18.799Z,1.50
2019-03-31T19:59:17.182Z,1.53
2019-03-31T20:02:01.631Z,1.77
2019-03-31T20:05:05.416Z,1.23
2019-03-31T20:08:05.822Z,1.00
2019-03-31T20:10:52.909Z,0.90
2019-03-31T20:13:40.463Z,1.37
2019-03-31T20:16:37.792Z,1.00
2019-03-31T20:19:41.798Z,1.30
2019-03-31T20:22:29.052Z,1.23
2019-03-31T20:25:18.693Z,1.00
2019-03-31T20:28:15.861Z,1.63
2019-03-31T20:31:03.023Z,1.13
2019-03-31T20:33:56.649Z,1.00
2019-03-31T20:36:35.697Z,1.20
2019-03-31T20:39:56.160Z,1.73
2019-03-31T20:42:53.261Z,1.13
2019-03-31T20:45:23.297Z,1.30
2019-03-31T20:47:54.470Z,1.10
2019-03-31T20:50:24.681Z,1.10
2019-03-31T20:52:54.439Z,1.70
2019-03-31T20:55:24.395Z,1.27
2019-03-31T20:57:54.483Z,1.33
2019-03-31T21:00:24.262Z,1.33
2019-03-31T21:02:54.214Z,1.23
2019-03-31T21:05:23.845Z,1.10
2019-03-31T21:07:53.999Z,1.50
2019-03-31T21:10:24.137Z,1.10
2019-03-31T21:12:54.055Z,1.07
2019-03-31T21:15:24.139Z,1.33
2019-03-31T21:17:54.380Z,1.30
2019-03-31T21:20:24.459Z,1.20
2019-03-31T21:22:54.351Z,0.90
2019-03-31T21:25:24.630Z,1.10
2019-03-31T21:27:54.356Z,1.17
2019-03-31T21:30:24.123Z,1.23
2019-03-31T21:32:53.720Z,1.57
2019-03-31T21:35:23.565Z,0.97
2019-03-31T21:37:53.283Z,1.03
2019-03-31T21:40:23.232Z,0.90
2019-03-31T21:42:52.746Z,0.97
2019-03-31T21:45:22.358Z,0.87
2019-03-31T21:47:52.022Z,0.90
2019-03-31T21:50:22.184Z,0.80
2019-03-31T21:52:52.154Z,1.17
2019-03-31T21:55:23.046Z,1.00
2019-03-31T21:57:54.370Z,1.10
2019-03-31T22:00:38.304Z,1.07
2019-03-31T22:03:09.438Z,0.80
2019-03-31T22:05:39.353Z,1.07
2019-03-31T22:08:17.229Z,1.10
2019-03-31T22:10:47.268Z,1.13
2019-03-31T22:13:17.154Z,1.10
2019-03-31T22:15:47.137Z,1.30
2019-03-31T22:18:17.103Z,1.10
2019-03-31T22:20:47.579Z,1.27
2019-03-31T22:23:17.359Z,1.00
2019-03-31T22:25:47.262Z,1.10
2019-03-31T22:28:17.209Z,1.10
2019-03-31T22:30:48.551Z,1.00
2019-03-31T22:33:18.584Z,1.43
2019-03-31T22:36:06.903Z,1.17
2019-03-31T22:38:36.886Z,0.90
2019-03-31T22:41:06.990Z,1.10
2019-03-31T22:43:36.763Z,1.10
2019-03-31T22:46:07.153Z,1.60
2019-03-31T22:48:37.058Z,1.27
2019-03-31T22:51:06.962Z,0.77
2019-03-31T22:53:37.158Z,1.20
2019-03-31T22:56:07.875Z,0.80
2019-03-31T22:58:39.830Z,0.70
2019-03-31T23:01:10.195Z,1.30
2019-03-31T23:03:40.158Z,1.23
2019-03-31T23:06:09.961Z,1.30
2019-03-31T23:08:39.778Z,0.90
2019-03-31T23:11:09.882Z,0.80
2019-03-31T23:13:39.914Z,1.10
2019-03-31T23:16:10.098Z,0.80
2019-03-31T23:18:39.974Z,0.60
2019-03-31T23:21:09.695Z,1.00
2019-03-31T23:23:39.599Z,1.23
2019-03-31T23:26:09.629Z,0.93
2019-03-31T23:28:48.926Z,0.70
2019-03-31T23:31:19.235Z,0.80
2019-03-31T23:33:50.066Z,0.83
2019-03-31T23:36:20.049Z,0.70
2019-03-31T23:38:49.899Z,1.00
2019-03-31T23:41:19.945Z,1.50
2019-03-31T23:43:51.017Z,0.90
2019-03-31T23:46:21.207Z,0.80
2019-03-31T23:48:50.946Z,0.60
2019-03-31T23:51:20.890Z,0.83
2019-03-31T23:53:50.725Z,0.80
2019-03-31T23:56:22.247Z,0.50
2019-03-31T23:58:52.546Z,0.90
